Time;durP1;ratioP1;P1;durP2;ratioP2;P2;SDS_P1;SDS_P2;PMS_P1;PMS_P2;Temp;Humidity;BMP_temperature;BMP_pressure;BME280_temperature;BME280_humidity;BME280_pressure;Samples;Min_cycle;Max_cycle;Signal;HPM_P1;HPM_P2
2023/08/16 00:02:15;;;;;;;7.35;4.68;;;21.70;80.50;;;20.93;100.00;96227.53;4948107;28;20031;-62
2023/08/16 00:04:42;;;;;;;5.35;4.22;;;21.70;80.40;;;20.90;100.00;96222.69;4949992;28;20127;-62
2023/08/16 00:07:07;;;;;;;6.60;5.03;;;21.70;80.30;;;20.92;100.00;96221.38;4963734;28;20110;-61
2023/08/16 00:09:33;;;;;;;6.25;4.38;;;21.70;80.00;;;20.88;100.00;96222.94;4931404;28;20038;-62
2023/08/16 00:11:59;;;;;;;5.68;4.30;;;21.70;80.10;;;20.87;100.00;96223.19;4946935;28;20062;-62
2023/08/16 00:14:25;;;;;;;6.40;4.32;;;21.70;80.20;;;20.86;100.00;96216.22;4930843;28;20521;-62
2023/08/16 00:16:50;;;;;;;7.40;4.95;;;21.70;80.10;;;20.86;100.00;96226.91;4931768;29;20070;-63
2023/08/16 00:19:16;;;;;;;10.13;4.75;;;21.70;80.00;;;20.84;100.00;96223.69;4946823;28;20059;-62
2023/08/16 00:21:42;;;;;;;5.50;4.30;;;21.70;80.00;;;20.82;100.00;96215.09;4946675;28;20118;-62
2023/08/16 00:24:10;;;;;;;5.07;4.30;;;21.70;80.10;;;20.80;100.00;96224.16;4946559;28;20558;-62
2023/08/16 00:26:38;;;;;;;4.43;3.88;;;21.70;80.10;;;20.79;100.00;96219.06;4947169;28;20035;-62
2023/08/16 00:29:04;;;;;;;6.97;4.18;;;21.70;80.10;;;20.75;100.00;96221.44;4947627;28;20463;-62
2023/08/16 00:31:29;;;;;;;6.13;4.05;;;21.60;80.30;;;20.73;100.00;96217.41;4930615;28;20045;-62
2023/08/16 00:33:55;;;;;;;5.53;3.78;;;21.60;80.10;;;20.72;100.00;96213.94;4948494;28;20451;-62
2023/08/16 00:36:22;;;;;;;6.22;4.18;;;21.60;80.10;;;20.71;100.00;96215.00;4930260;28;20490;-62
2023/08/16 00:38:48;;;;;;;5.65;4.00;;;21.60;80.10;;;20.70;100.00;96218.72;4947015;28;20510;-62
2023/08/16 00:41:13;;;;;;;4.50;3.80;;;21.60;80.10;;;20.72;100.00;96215.78;4946640;28;20053;-62
2023/08/16 00:43:39;;;;;;;6.38;3.92;;;21.60;79.90;;;20.72;100.00;96213.94;4930067;28;20121;-62
2023/08/16 00:46:10;;;;;;;6.68;4.35;;;21.60;80.10;;;20.72;100.00;96215.78;4931080;29;20027;-61
2023/08/16 00:48:37;;;;;;;5.95;4.25;;;21.60;80.10;;;20.70;100.00;96207.22;4930648;28;20043;-62
2023/08/16 00:51:03;;;;;;;5.57;4.20;;;21.60;80.20;;;20.69;100.00;96211.75;4928496;28;20047;-63
2023/08/16 00:53:29;;;;;;;7.93;4.55;;;21.60;80.30;;;20.68;100.00;96204.00;4943807;28;20046;-62
2023/08/16 00:55:55;;;;;;;5.20;4.07;;;21.60;80.30;;;20.66;100.00;96206.09;4930715;29;20475;-62
2023/08/16 00:58:21;;;;;;;7.70;4.43;;;21.60;80.50;;;20.64;100.00;96198.34;4930450;28;20039;-63
2023/08/16 01:00:47;;;;;;;6.25;4.30;;;21.60;80.40;;;20.62;100.00;96199.66;4947287;28;20031;-63
2023/08/16 01:03:13;;;;;;;6.43;4.82;;;21.60;80.40;;;20.62;100.00;96187.09;4929886;29;20031;-62
2023/08/16 01:05:38;;;;;;;6.22;4.30;;;21.50;80.50;;;20.62;100.00;96188.97;4945273;28;20062;-62
2023/08/16 01:08:04;;;;;;;6.43;4.32;;;21.60;80.50;;;20.62;100.00;96179.06;4930399;29;20023;-61
2023/08/16 01:11:00;;;;;;;7.22;4.90;;;21.60;80.40;;;20.65;100.00;96183.91;4929195;28;20103;-62
2023/08/16 01:13:53;;;;;;;8.32;4.72;;;21.60;80.60;;;20.65;100.00;96178.56;4945011;28;20170;-62
2023/08/16 01:16:20;;;;;;;6.35;4.80;;;21.60;80.50;;;20.65;100.00;96183.09;4943322;28;20062;-62
2023/08/16 01:18:45;;;;;;;5.93;4.30;;;21.60;80.50;;;20.63;100.00;96186.03;4930479;29;20042;-62
2023/08/16 01:21:12;;;;;;;6.38;4.20;;;21.60;80.60;;;20.60;100.00;96186.53;4929540;29;20035;-62
2023/08/16 01:23:57;;;;;;;6.80;4.25;;;21.50;80.80;;;20.59;100.00;96192.91;4929606;28;20070;-62
2023/08/16 01:26:33;;;;;;;5.47;4.30;;;21.50;80.60;;;20.59;100.00;96194.78;4942397;28;20039;-62
2023/08/16 01:29:00;;;;;;;4.88;4.15;;;21.60;80.50;;;20.56;100.00;96188.06;4915259;29;20039;-62
2023/08/16 01:31:26;;;;;;;5.30;3.90;;;21.60;80.60;;;20.56;100.00;96185.41;4911395;28;20036;-62
2023/08/16 01:33:52;;;;;;;7.18;4.80;;;21.60;80.60;;;20.55;100.00;96186.44;4944309;28;20575;-62
2023/08/16 01:36:17;;;;;;;6.32;4.40;;;21.50;80.70;;;20.53;100.00;96183.22;4929597;28;20561;-62
2023/08/16 01:38:43;;;;;;;5.43;4.70;;;21.50;80.70;;;20.52;100.00;96189.63;4945877;28;20082;-62
2023/08/16 01:41:29;;;;;;;7.47;4.72;;;21.50;80.70;;;20.52;100.00;96186.16;4945215;28;20523;-61
2023/08/16 01:43:55;;;;;;;6.35;4.97;;;21.50;80.70;;;20.51;100.00;96188.00;4943259;28;20035;-61
2023/08/16 01:46:21;;;;;;;5.30;4.60;;;21.40;80.80;;;20.50;100.00;96191.75;4926953;28;20627;-61
2023/08/16 01:48:47;;;;;;;7.82;4.65;;;21.40;80.80;;;20.46;100.00;96196.78;4932873;28;20656;-61
2023/08/16 01:51:12;;;;;;;9.60;4.88;;;21.40;80.90;;;20.45;100.00;96197.03;4925976;29;20381;-62
2023/08/16 01:53:38;;;;;;;6.10;4.82;;;21.40;80.90;;;20.41;100.00;96195.91;4960259;28;20055;-61
2023/08/16 01:56:04;;;;;;;6.93;4.63;;;21.40;81.00;;;20.36;100.00;96193.13;4927731;29;20573;-62
2023/08/16 01:58:30;;;;;;;9.13;5.25;;;21.30;81.00;;;20.34;100.00;96189.91;4963616;28;20042;-62
2023/08/16 02:00:56;;;;;;;4.75;4.28;;;21.20;81.00;;;20.29;100.00;96195.19;4946475;28;20035;-62
2023/08/16 02:03:21;;;;;;;6.20;4.40;;;21.10;80.80;;;20.26;100.00;96199.16;4950577;28;20154;-62
2023/08/16 02:05:49;;;;;;;6.32;4.80;;;21.10;80.90;;;20.23;100.00;96193.50;4951687;28;20031;-62
2023/08/16 02:08:15;;;;;;;5.88;4.43;;;21.10;80.50;;;20.19;100.00;96186.00;4950980;28;20035;-61
2023/08/16 02:10:41;;;;;;;6.80;4.82;;;21.10;80.70;;;20.16;100.00;96186.50;4948500;28;20039;-61
2023/08/16 02:13:06;;;;;;;6.53;4.90;;;21.10;81.20;;;20.12;100.00;96190.69;4948374;28;20063;-62
2023/08/16 02:15:32;;;;;;;7.18;5.38;;;21.00;81.30;;;20.11;100.00;96182.94;4931556;28;20040;-63
2023/08/16 02:17:58;;;;;;;5.85;4.78;;;21.10;81.40;;;20.08;100.00;96186.91;4916402;29;20047;-62
2023/08/16 02:20:24;;;;;;;9.90;5.03;;;21.00;81.40;;;20.06;100.00;96188.22;4930780;28;20574;-62
2023/08/16 02:22:49;;;;;;;6.13;4.55;;;20.90;81.40;;;20.01;100.00;96182.81;4948947;28;20060;-61
2023/08/16 02:25:15;;;;;;;5.75;5.10;;;20.90;81.20;;;19.98;100.00;96183.31;4931877;29;20031;-62
2023/08/16 02:27:41;;;;;;;5.82;5.03;;;20.80;81.30;;;19.94;100.00;96188.31;4950037;28;20042;-63
2023/08/16 02:30:07;;;;;;;7.30;5.20;;;20.80;81.40;;;19.92;100.00;96184.28;4947299;28;20027;-62
2023/08/16 02:32:33;;;;;;;7.90;4.93;;;20.70;81.40;;;19.87;100.00;96182.34;4947562;28;20043;-62
2023/08/16 02:34:59;;;;;;;7.45;5.50;;;20.70;81.60;;;19.85;100.00;96187.13;4948962;28;20039;-62
2023/08/16 02:37:25;;;;;;;7.28;5.30;;;20.70;81.60;;;19.82;100.00;96185.75;4946217;28;20031;-62
2023/08/16 02:39:51;;;;;;;7.75;5.30;;;20.70;81.70;;;19.78;100.00;96178.47;4946111;28;20082;-66
2023/08/16 02:42:17;;;;;;;10.38;5.43;;;20.70;81.80;;;19.77;100.00;96188.34;4914748;29;20039;-65
2023/08/16 02:44:43;;;;;;;7.68;5.43;;;20.60;81.90;;;19.75;100.00;96184.31;4944792;28;20526;-65
2023/08/16 02:47:08;;;;;;;7.25;4.88;;;20.70;81.80;;;19.72;100.00;96185.59;4925510;29;20076;-62
2023/08/16 02:49:34;;;;;;;7.80;5.43;;;20.70;82.20;;;19.69;100.00;96185.25;4964500;28;20074;-62
2023/08/16 02:52:00;;;;;;;7.93;5.22;;;20.60;82.30;;;19.67;100.00;96188.19;4965259;28;20062;-62
2023/08/16 02:54:26;;;;;;;8.55;5.53;;;20.60;82.50;;;19.66;100.00;96191.09;4967249;28;20038;-61
2023/08/16 02:56:51;;;;;;;7.78;5.40;;;20.60;82.40;;;19.65;100.00;96192.16;4951387;28;20042;-61
2023/08/16 02:59:17;;;;;;;5.40;4.80;;;20.60;82.60;;;19.61;100.00;96191.81;4965894;28;20085;-62
2023/08/16 03:01:43;;;;;;;7.80;5.63;;;20.50;82.60;;;19.56;100.00;96195.22;4966298;28;20142;-62
2023/08/16 03:04:09;;;;;;;6.78;5.97;;;20.50;82.80;;;19.53;100.00;96208.22;4949545;28;20062;-62
2023/08/16 03:06:35;;;;;;;5.72;4.90;;;20.40;82.90;;;19.53;100.00;96209.06;4950531;28;20031;-62
2023/08/16 03:09:01;;;;;;;6.25;4.88;;;20.50;82.80;;;19.48;100.00;96211.63;4963141;28;20701;-61
2023/08/16 03:11:26;;;;;;;8.80;5.85;;;20.40;83.00;;;19.43;100.00;96208.84;4966717;28;20525;-61
2023/08/16 03:13:52;;;;;;;9.00;5.57;;;20.40;83.00;;;19.41;100.00;96216.28;4918256;28;1060135;-62
2023/08/16 03:16:18;;;;;;;7.22;4.90;;;20.40;82.70;;;19.37;100.00;96215.16;4965643;28;20035;-61
2023/08/16 03:18:43;;;;;;;7.30;4.95;;;20.30;81.90;;;19.34;100.00;96214.84;4976473;28;20181;-61
2023/08/16 03:21:09;;;;;;;42.03;37.17;;;20.20;80.70;;;19.24;100.00;96220.81;4968759;28;20438;-62
2023/08/16 03:23:35;;;;;;;25.45;22.48;;;20.10;80.90;;;19.18;100.00;96227.91;4967839;28;20376;-62
2023/08/16 03:26:01;;;;;;;11.85;10.55;;;20.10;81.40;;;19.15;100.00;96223.03;4968589;28;20038;-62
2023/08/16 03:28:26;;;;;;;9.10;6.55;;;20.10;81.50;;;19.11;100.00;96237.09;4968276;28;20073;-62
2023/08/16 03:30:52;;;;;;;50.22;40.60;;;20.00;82.10;;;19.08;100.00;96226.91;4966028;28;20066;-61
2023/08/16 03:33:18;;;;;;;23.65;20.65;;;20.00;82.20;;;19.04;100.00;96231.91;4971980;28;20415;-62
2023/08/16 03:35:44;;;;;;;15.68;12.55;;;19.90;82.40;;;19.00;100.00;96230.75;4952982;28;20631;-62
2023/08/16 03:38:09;;;;;;;12.45;10.15;;;19.90;82.50;;;18.98;100.00;96243.53;4950507;28;20034;-62
2023/08/16 03:40:35;;;;;;;13.20;11.18;;;19.90;82.70;;;18.97;100.00;96244.56;4950739;28;20169;-61
2023/08/16 03:43:02;;;;;;;11.70;10.50;;;19.90;82.60;;;18.92;100.00;96244.47;4949112;28;20058;-61
2023/08/16 03:45:28;;;;;;;12.10;8.77;;;19.90;82.50;;;18.89;100.00;96245.75;4968357;28;20035;-62
2023/08/16 03:47:55;;;;;;;8.48;7.57;;;19.80;82.80;;;18.86;100.00;96245.44;4969472;28;20066;-67
2023/08/16 03:50:21;;;;;;;10.38;8.68;;;19.80;83.10;;;18.86;100.00;96248.91;4961339;28;20030;-61
2023/08/16 03:52:47;;;;;;;21.90;17.48;;;19.80;83.00;;;18.85;100.00;96252.63;4947219;28;20035;-62
2023/08/16 03:55:12;;;;;;;31.15;27.58;;;19.80;82.80;;;18.80;100.00;96252.53;4966387;28;20074;-62
2023/08/16 03:57:38;;;;;;;20.80;18.55;;;19.70;82.70;;;18.79;100.00;96256.25;4964750;28;20079;-61
2023/08/16 04:00:11;;;;;;;11.90;8.20;;;19.80;82.60;;;18.78;100.00;96256.44;4966224;28;20066;-62
2023/08/16 04:02:37;;;;;;;7.13;6.15;;;19.70;82.50;;;18.73;100.00;96259.81;4953755;28;20117;-62
2023/08/16 04:05:11;;;;;;;7.45;6.05;;;19.70;82.80;;;18.72;100.00;96266.19;4967379;28;20182;-62
2023/08/16 04:07:38;;;;;;;10.95;6.47;;;19.70;83.00;;;18.72;100.00;96266.19;4973568;28;20125;-64
2023/08/16 04:10:04;;;;;;;9.05;6.15;;;19.70;83.10;;;18.71;100.00;96269.91;4972547;28;20077;-65
2023/08/16 04:12:30;;;;;;;8.32;6.03;;;19.60;83.20;;;18.69;100.00;96266.69;4955473;28;20042;-64
2023/08/16 04:14:56;;;;;;;7.93;6.03;;;19.70;83.30;;;18.67;100.00;96263.44;4973319;28;20037;-65
2023/08/16 04:17:22;;;;;;;34.28;29.48;;;19.60;83.60;;;18.67;100.00;96268.78;4969491;28;20057;-65
2023/08/16 04:19:48;;;;;;;65.75;58.63;;;19.70;83.80;;;18.68;100.00;96273.06;4959755;28;20038;-64
2023/08/16 04:22:13;;;;;;;28.20;24.15;;;19.70;83.90;;;18.71;100.00;96269.91;4971969;28;20413;-65
2023/08/16 04:24:39;;;;;;;15.70;12.00;;;19.70;83.70;;;18.71;100.00;96271.78;4956485;28;20030;-65
2023/08/16 04:27:05;;;;;;;9.13;7.30;;;19.70;83.80;;;18.70;100.00;96273.63;4974674;28;20506;-64
2023/08/16 04:29:31;;;;;;;11.10;6.32;;;19.70;83.70;;;18.72;100.00;96273.38;4959502;28;20031;-64
2023/08/16 04:31:57;;;;;;;8.00;6.40;;;19.70;83.70;;;18.74;100.00;96272.09;4979035;28;20478;-64
2023/08/16 04:34:23;;;;;;;8.70;6.13;;;19.80;83.60;;;18.74;100.00;96271.28;4970336;28;20115;-65
2023/08/16 04:36:48;;;;;;;7.57;5.78;;;19.80;83.50;;;18.75;100.00;96270.25;4975279;28;20027;-66
2023/08/16 04:39:14;;;;;;;9.35;6.20;;;19.80;83.30;;;18.76;100.00;96283.34;4954761;28;20070;-65
2023/08/16 04:41:40;;;;;;;7.05;6.20;;;19.90;83.30;;;18.79;100.00;96277.56;4971726;28;20035;-65
2023/08/16 04:44:06;;;;;;;9.75;6.15;;;19.90;83.20;;;18.82;100.00;96276.28;4955832;28;20415;-66
2023/08/16 04:46:32;;;;;;;7.68;6.57;;;19.90;83.20;;;18.82;100.00;96273.59;4971336;28;20703;-66
2023/08/16 04:48:57;;;;;;;10.88;6.18;;;19.90;83.40;;;18.82;100.00;96271.75;4954499;28;20410;-65
2023/08/16 04:51:23;;;;;;;7.13;6.43;;;19.90;83.50;;;18.83;100.00;96269.91;4971731;28;20519;-65
2023/08/16 04:53:49;;;;;;;8.50;6.70;;;19.90;83.80;;;18.85;100.00;96281.13;4971577;28;20049;-65
2023/08/16 04:56:15;;;;;;;7.10;6.15;;;20.00;83.70;;;18.86;100.00;96280.88;4971183;28;20557;-64
2023/08/16 04:58:40;;;;;;;7.13;6.15;;;20.10;83.60;;;18.88;100.00;96278.78;4955862;28;20039;-64
2023/08/16 05:01:06;;;;;;;7.47;6.38;;;20.10;83.60;;;18.91;100.00;96283.66;4971850;28;20062;-64
2023/08/16 05:03:32;;;;;;;8.30;6.25;;;20.10;83.40;;;18.95;100.00;96287.47;4969989;28;20023;-64
2023/08/16 05:06:01;;;;;;;7.25;5.97;;;20.10;83.40;;;18.96;100.00;96291.75;4971623;28;20053;-64
2023/08/16 05:08:27;;;;;;;8.02;6.70;;;20.10;83.30;;;18.96;100.00;96283.75;4952329;28;20446;-64
2023/08/16 05:10:55;;;;;;;8.98;6.45;;;20.10;83.50;;;18.95;100.00;96292.78;4969107;28;20042;-64
2023/08/16 05:13:24;;;;;;;7.40;6.53;;;20.10;83.50;;;18.94;100.00;96296.50;4967983;28;20509;-64
2023/08/16 05:15:49;;;;;;;7.07;6.38;;;20.10;83.80;;;18.96;100.00;96294.41;4972578;28;20034;-64
2023/08/16 05:18:15;;;;;;;12.80;11.20;;;20.20;83.50;;;18.98;100.00;96297.63;4970480;28;20023;-64
2023/08/16 05:20:41;;;;;;;19.00;17.05;;;20.10;83.50;;;19.00;100.00;96291.25;4967736;28;20031;-64
2023/08/16 05:23:07;;;;;;;14.63;13.13;;;20.10;83.30;;;19.01;100.00;96285.72;4953118;28;20043;-64
2023/08/16 05:25:32;;;;;;;13.02;11.73;;;20.20;83.20;;;19.02;100.00;96289.19;4950904;28;20031;-64
2023/08/16 05:27:58;;;;;;;15.02;12.52;;;20.20;83.20;;;19.03;100.00;96294.28;4956037;28;20049;-64
2023/08/16 05:30:28;;;;;;;12.30;11.10;;;20.20;83.10;;;19.07;100.00;96299.97;4969143;28;20085;-64
2023/08/16 05:32:57;;;;;;;10.13;8.52;;;20.20;83.00;;;19.06;100.00;96306.34;4959210;28;20038;-64
2023/08/16 05:35:23;;;;;;;8.75;7.95;;;20.20;82.90;;;19.06;100.00;96303.66;4970774;28;20371;-66
2023/08/16 05:37:50;;;;;;;11.38;7.45;;;20.20;83.10;;;19.11;100.00;96309.09;4972539;28;20023;-65
2023/08/16 05:40:16;;;;;;;8.88;7.05;;;20.40;82.90;;;19.18;100.00;96301.75;4969680;28;20039;-65
2023/08/16 05:42:42;;;;;;;7.88;7.13;;;20.50;82.80;;;19.23;100.00;96310.66;4971375;28;20041;-65
2023/08/16 05:45:08;;;;;;;12.45;7.20;;;20.60;82.80;;;19.30;100.00;96310.53;4972656;28;20042;-65
2023/08/16 05:47:34;;;;;;;7.43;6.63;;;20.60;82.70;;;19.38;100.00;96312.81;4943982;28;20046;-65
2023/08/16 05:50:00;;;;;;;6.65;5.97;;;20.70;82.70;;;19.48;100.00;96315.66;4968232;28;20058;-65
2023/08/16 05:52:26;;;;;;;6.95;6.35;;;20.80;82.30;;;19.57;100.00;96308.91;4970012;28;20122;-65
2023/08/16 05:54:52;;;;;;;11.40;10.18;;;20.90;82.20;;;19.68;100.00;96323.22;4968304;28;20035;-65
2023/08/16 05:57:18;;;;;;;11.77;8.25;;;21.10;81.70;;;19.79;100.00;96318.91;4964430;28;20406;-65
2023/08/16 05:59:43;;;;;;;8.55;5.82;;;21.20;81.30;;;19.89;100.00;96324.38;4929949;28;20134;-65
2023/08/16 06:02:09;;;;;;;6.00;4.90;;;21.30;81.00;;;19.99;100.00;96324.56;4932059;29;20042;-65
2023/08/16 06:04:35;;;;;;;5.80;4.85;;;21.50;80.50;;;20.08;100.00;96312.41;4916114;29;20526;-65
2023/08/16 06:07:02;;;;;;;9.07;4.53;;;21.60;79.90;;;20.20;100.00;96320.34;4933386;28;20039;-65
2023/08/16 06:09:28;;;;;;;7.30;4.80;;;21.70;79.40;;;20.32;100.00;96312.25;4933455;28;20035;-64
2023/08/16 06:11:53;;;;;;;5.85;4.13;;;21.90;79.00;;;20.41;100.00;96313.50;4951515;28;20106;-65
2023/08/16 06:14:19;;;;;;;5.22;4.07;;;22.00;78.70;;;20.53;100.00;96314.19;4934622;29;20031;-65
2023/08/16 06:16:45;;;;;;;6.00;4.45;;;22.10;78.20;;;20.66;100.00;96324.53;4915493;28;20043;-65
2023/08/16 06:19:13;;;;;;;6.03;4.70;;;22.30;77.50;;;20.80;100.00;96323.09;4950513;28;20406;-65
2023/08/16 06:21:39;;;;;;;6.70;4.57;;;22.50;76.90;;;20.92;100.00;96327.53;4949234;28;20043;-65
2023/08/16 06:24:05;;;;;;;5.68;4.72;;;22.60;76.40;;;21.02;100.00;96328.44;4948732;28;20106;-65
2023/08/16 06:26:31;;;;;;;7.32;4.53;;;22.70;76.20;;;21.11;100.00;96326.16;4950733;28;20040;-66
2023/08/16 06:28:58;;;;;;;4.47;4.05;;;22.80;76.10;;;21.23;100.00;96334.03;4932765;28;20385;-65
2023/08/16 06:31:23;;;;;;;4.93;3.85;;;22.90;75.90;;;21.29;100.00;96333.91;4948222;28;20054;-65
2023/08/16 06:33:49;;;;;;;9.27;4.50;;;23.00;76.00;;;21.38;100.00;96327.03;4948839;28;20500;-65
2023/08/16 06:36:15;;;;;;;5.68;4.50;;;23.10;75.20;;;21.47;100.00;96323.88;4948379;28;20090;-65
2023/08/16 06:38:43;;;;;;;4.68;3.70;;;23.10;75.10;;;21.54;100.00;96313.81;4949117;28;20035;-64
2023/08/16 06:41:09;;;;;;;6.88;4.05;;;23.30;74.90;;;21.62;100.00;96316.81;4948668;28;20751;-65
2023/08/16 06:43:35;;;;;;;6.50;4.10;;;23.40;74.60;;;21.72;100.00;96321.47;4949928;28;20526;-65
2023/08/16 06:46:01;;;;;;;6.63;4.15;;;23.50;74.10;;;21.84;100.00;96321.31;4932586;28;20031;-65
2023/08/16 06:48:26;;;;;;;5.38;3.90;;;23.60;74.00;;;21.93;100.00;96322.44;4935271;28;20254;-64
2023/08/16 06:50:53;;;;;;;7.15;4.07;;;23.60;73.10;;;22.01;100.00;96325.47;4952173;28;20038;-65
2023/08/16 06:53:19;;;;;;;4.35;3.55;;;23.80;72.20;;;22.14;100.00;96318.09;4939444;28;20090;-65
2023/08/16 06:55:45;;;;;;;5.72;3.67;;;24.00;72.50;;;22.28;100.00;96319.28;4954091;28;20499;-65
2023/08/16 06:58:11;;;;;;;5.43;3.90;;;24.10;71.40;;;22.41;100.00;96318.84;4952053;28;20038;-65
2023/08/16 07:00:36;;;;;;;5.20;3.70;;;24.30;70.10;;;22.58;100.00;96305.25;4952499;28;20040;-65
2023/08/16 07:03:03;;;;;;;6.38;3.50;;;24.50;70.30;;;22.73;100.00;96307.22;4952088;28;20386;-66
2023/08/16 07:05:28;;;;;;;10.40;8.95;;;24.60;70.20;;;22.87;100.00;96303.03;4953632;28;20031;-64
2023/08/16 07:07:55;;;;;;;10.43;7.35;;;24.80;69.80;;;23.02;100.00;96302.28;4952406;28;20457;-65
2023/08/16 07:10:21;;;;;;;8.65;5.00;;;25.00;69.50;;;23.18;100.00;96307.44;4952342;28;20118;-64
2023/08/16 07:12:47;;;;;;;5.00;3.17;;;25.20;68.60;;;23.35;100.00;96299.19;4954816;28;20131;-65
2023/08/16 07:15:12;;;;;;;4.72;3.30;;;25.30;66.90;;;23.52;100.00;96309.66;4953235;28;20067;-65
2023/08/16 07:17:39;;;;;;;5.97;3.35;;;25.60;67.00;;;23.67;100.00;96309.72;4950949;28;20141;-65
2023/08/16 07:20:08;;;;;;;5.80;3.15;;;25.70;65.90;;;23.86;100.00;96296.59;4934336;28;20028;-65
2023/08/16 07:22:37;;;;;;;5.72;2.92;;;25.90;65.30;;;24.02;100.00;96305.47;4951991;28;20124;-64
2023/08/16 07:25:06;;;;;;;5.60;2.90;;;26.10;64.90;;;24.19;97.91;96300.59;4951271;28;20035;-65
2023/08/16 07:27:32;;;;;;;6.68;3.10;;;26.20;64.70;;;24.33;98.15;96304.38;4935638;28;20051;-65
2023/08/16 07:29:58;;;;;;;3.00;2.35;;;26.40;64.00;;;24.52;95.83;96309.19;4934927;28;20123;-64
2023/08/16 07:32:24;;;;;;;5.15;2.60;;;26.60;62.30;;;24.68;95.18;96300.84;4952346;28;20405;-65
2023/08/16 07:34:50;;;;;;;5.80;3.05;;;26.80;62.40;;;24.87;93.79;96305.59;4951779;28;20118;-65
2023/08/16 07:37:17;;;;;;;4.45;2.30;;;27.10;61.50;;;25.02;91.53;96300.19;4935450;28;20066;-65
2023/08/16 07:39:43;;;;;;;4.07;2.70;;;27.20;59.50;;;25.17;89.77;96308.22;4952630;28;20109;-65
2023/08/16 07:42:09;;;;;;;3.55;2.47;;;27.40;59.70;;;25.34;89.00;96305.16;4935089;28;20057;-66
2023/08/16 07:44:35;;;;;;;3.85;2.20;;;27.60;59.30;;;25.52;87.43;96309.91;4950825;28;20114;-65
2023/08/16 07:47:01;;;;;;;3.38;2.47;;;27.90;58.10;;;25.73;86.90;96316.00;4951311;28;20046;-65
2023/08/16 07:49:27;;;;;;;3.58;2.25;;;28.10;58.30;;;25.93;86.31;96317.75;4935165;28;20055;-65
2023/08/16 07:51:55;;;;;;;4.25;2.35;;;28.40;57.80;;;26.12;85.71;96324.06;4952712;28;20110;-64
2023/08/16 07:54:21;;;;;;;6.18;2.50;;;28.60;58.20;;;26.31;85.34;96324.19;4953632;28;20046;-65
2023/08/16 07:56:46;;;;;;;4.30;2.38;;;28.80;57.50;;;26.46;84.76;96320.56;4950679;28;20502;-65
2023/08/16 07:59:12;;;;;;;4.43;3.00;;;28.80;56.90;;;26.55;82.72;96319.66;4952472;28;20062;-64
2023/08/16 08:01:39;;;;;;;9.48;7.47;;;28.80;56.70;;;26.64;83.34;96322.53;4936381;28;20139;-64
2023/08/16 08:04:05;;;;;;;4.20;3.05;;;28.90;57.30;;;26.80;83.60;96315.09;4967987;28;20042;-65
2023/08/16 08:06:31;;;;;;;5.80;2.60;;;29.10;57.50;;;26.98;83.19;96308.13;4953833;28;20032;-65
2023/08/16 08:08:57;;;;;;;3.88;2.60;;;29.40;56.60;;;27.16;81.63;96307.41;4934249;28;20311;-64
2023/08/16 08:11:22;;;;;;;2.80;2.03;;;29.60;55.00;;;27.29;77.31;96295.09;4934760;28;20470;-64
2023/08/16 08:13:48;;;;;;;3.88;2.25;;;29.60;51.80;;;27.46;75.66;96295.38;4953579;28;20035;-67
2023/08/16 08:16:14;;;;;;;3.58;2.13;;;30.00;52.10;;;27.65;75.24;96288.13;4952500;28;20564;-65
2023/08/16 08:18:40;;;;;;;5.35;2.17;;;30.20;52.40;;;27.83;73.73;96294.59;4950871;28;20058;-65
2023/08/16 08:21:05;;;;;;;2.30;1.90;;;30.40;50.70;;;28.01;73.21;96291.06;4950657;28;20035;-64
2023/08/16 08:23:33;;;;;;;7.80;2.30;;;30.60;50.50;;;28.19;72.41;96284.00;4949894;28;20042;-64
2023/08/16 08:25:59;;;;;;;2.58;2.33;;;30.80;51.00;;;28.38;70.43;96292.09;4951924;28;20027;-65
2023/08/16 08:28:25;;;;;;;6.20;2.17;;;30.80;48.90;;;28.47;68.60;96287.59;4936210;29;20336;-65
2023/08/16 08:30:51;;;;;;;2.33;2.00;;;31.00;47.20;;;28.56;68.28;96288.53;4952082;28;20035;-65
2023/08/16 08:33:16;;;;;;;3.60;2.00;;;31.10;48.70;;;28.76;67.12;96295.47;4951319;28;20482;-65
2023/08/16 08:35:42;;;;;;;3.60;1.80;;;31.40;46.70;;;28.90;67.02;96290.06;4952114;28;20166;-66
2023/08/16 08:38:08;;;;;;;4.10;2.17;;;31.60;47.80;;;29.13;66.63;96294.47;4951103;28;20027;-65
2023/08/16 08:40:34;;;;;;;4.30;2.00;;;32.00;47.60;;;29.35;66.74;96290.22;4953311;28;20094;-65
2023/08/16 08:43:00;;;;;;;6.78;1.80;;;32.10;47.90;;;29.53;66.66;96292.81;4952706;28;20039;-64
2023/08/16 08:45:29;;;;;;;2.53;1.55;;;32.40;47.40;;;29.74;63.87;96292.38;4936592;28;20478;-65
2023/08/16 08:47:59;;;;;;;2.85;1.77;;;32.50;44.50;;;29.91;63.24;96291.72;4933903;29;20041;-65
2023/08/16 08:50:25;;;;;;;3.38;1.70;;;32.80;44.50;;;30.15;62.52;96287.59;4952956;28;20194;-65
2023/08/16 08:52:54;;;;;;;2.90;1.70;;;33.10;44.20;;;30.37;62.25;96284.06;4949916;28;20550;-65
2023/08/16 08:55:20;;;;;;;3.10;1.95;;;33.30;44.00;;;30.58;61.55;96287.03;4953526;28;20046;-64
2023/08/16 08:57:50;;;;;;;4.68;2.10;;;33.60;44.80;;;30.79;61.58;96279.19;4946206;28;20564;-65
2023/08/16 09:00:25;;;;;;;3.20;1.83;;;33.80;43.40;;;31.03;56.48;96255.13;4934490;28;20035;-64
2023/08/16 09:02:51;;;;;;;2.72;1.70;;;34.20;42.30;;;31.27;59.01;96264.78;4934102;29;20050;-65
2023/08/16 09:05:18;;;;;;;6.60;1.83;;;34.40;41.40;;;31.38;58.08;96252.47;4933774;28;20044;-65
2023/08/16 09:07:44;;;;;;;3.50;1.85;;;34.50;41.00;;;31.55;56.96;96244.34;4953957;28;20066;-65
2023/08/16 09:10:11;;;;;;;2.53;1.90;;;34.70;40.60;;;31.75;56.15;96244.84;4971067;28;20109;-64
2023/08/16 09:12:37;;;;;;;3.97;1.98;;;34.90;40.80;;;31.82;56.42;96240.50;4954191;28;20031;-64
2023/08/16 09:15:04;;;;;;;3.90;1.85;;;35.00;40.90;;;32.09;55.27;96247.50;4955676;28;20470;-64
2023/08/16 09:17:29;;;;;;;2.83;1.67;;;35.40;40.30;;;32.27;53.68;96251.03;4957713;28;20102;-64
2023/08/16 09:19:55;;;;;;;8.77;7.72;;;35.50;38.40;;;32.47;53.96;96244.88;4934106;28;20431;-65
2023/08/16 09:22:21;;;;;;;5.40;3.58;;;35.90;39.20;;;32.74;53.26;96240.94;4952338;28;20034;-65
2023/08/16 09:24:48;;;;;;;3.90;2.03;;;36.20;37.80;;;32.94;52.63;96233.16;4969643;28;20037;-64
2023/08/16 09:27:14;;;;;;;3.38;1.58;;;36.50;37.50;;;33.01;51.25;96225.25;4969492;28;20026;-65
2023/08/16 09:29:40;;;;;;;4.00;1.60;;;36.40;37.00;;;33.17;50.73;96229.00;4969896;28;20083;-64
2023/08/16 09:32:09;;;;;;;2.67;1.40;;;36.50;37.20;;;33.24;51.05;96223.81;4968763;28;20418;-65
2023/08/16 09:34:35;;;;;;;;;;;36.60;37.90;;;33.49;49.07;96219.34;4970073;28;20066;-65
2023/08/16 09:37:03;;;;;;;2.28;1.38;;;37.00;37.30;;;33.68;50.58;96233.31;4954122;28;19949;-64
2023/08/16 09:39:28;;;;;;;3.65;1.70;;;37.00;35.30;;;33.86;48.68;96223.06;4970498;28;20027;-64
2023/08/16 09:41:57;;;;;;;4.82;1.60;;;37.40;35.40;;;34.08;47.71;96219.16;4969329;28;20033;-65
2023/08/16 09:44:28;;;;;;;3.42;1.45;;;37.60;34.40;;;34.31;45.53;96189.50;4972964;28;20047;-65
2023/08/16 09:46:55;;;;;;;1.90;1.50;;;37.90;34.40;;;34.51;45.88;96204.25;4964291;28;20061;-65
2023/08/16 09:49:22;;;;;;;2.95;1.50;;;38.10;33.80;;;34.68;45.14;96204.84;4969411;28;20038;-66
2023/08/16 09:51:48;;;;;;;3.58;1.48;;;38.40;33.50;;;34.92;44.55;96195.84;4969614;28;20569;-64
2023/08/16 09:54:14;;;;;;;4.32;1.42;;;38.70;32.70;;;35.16;45.65;96202.44;4969681;28;20074;-65
2023/08/16 09:56:41;;;;;;;2.63;1.50;;;39.10;34.30;;;35.41;44.34;96197.72;4970478;28;20649;-64
2023/08/16 09:59:13;;;;;;;2.78;1.50;;;39.50;32.50;;;35.58;43.04;96183.75;4970907;28;20042;-65
2023/08/16 10:01:39;;;;;;;1.80;1.30;;;39.60;32.40;;;35.72;43.42;96186.88;4967277;28;20513;-65
2023/08/16 10:04:07;;;;;;;2.72;1.48;;;39.80;31.90;;;35.94;42.09;96179.28;4969225;28;20035;-65
2023/08/16 10:06:33;;;;;;;5.45;1.60;;;40.30;30.40;;;36.18;42.13;96184.63;4950485;28;20042;-65
2023/08/16 10:08:59;;;;;;;2.55;1.60;;;40.80;30.40;;;36.38;42.00;96186.34;4969304;28;20033;-65
2023/08/16 10:11:26;;;;;;;3.10;1.60;;;41.00;30.80;;;36.58;42.23;96189.16;4968286;28;20039;-64